createdAt,value
2023-09-03T00:00:49.281Z,2.75
2023-09-03T00:03:16.629Z,2.85
2023-09-03T00:05:50.592Z,4.00
2023-09-03T00:08:19.829Z,2.97
2023-09-03T00:10:50.456Z,3.00
2023-09-03T00:13:17.921Z,2.67
2023-09-03T00:15:45.576Z,3.45
2023-09-03T00:18:14.455Z,3.78
2023-09-03T00:20:41.876Z,3.92
2023-09-03T00:23:10.307Z,3.67
2023-09-03T00:25:38.873Z,3.00
2023-09-03T00:28:06.405Z,4.10
2023-09-03T00:30:33.614Z,3.50
2023-09-03T00:33:00.917Z,3.63
2023-09-03T00:35:28.087Z,2.90
2023-09-03T00:37:55.229Z,2.72
2023-09-03T00:40:22.407Z,2.75
2023-09-03T00:42:51.020Z,2.85
2023-09-03T00:45:18.686Z,3.00
2023-09-03T00:47:49.209Z,2.15
2023-09-03T00:50:16.575Z,5.05
2023-09-03T00:52:43.885Z,2.78
2023-09-03T00:55:11.344Z,3.65
2023-09-03T00:57:38.776Z,3.08
2023-09-03T01:00:09.244Z,2.80
2023-09-03T01:05:05.513Z,2.80
2023-09-03T01:07:32.636Z,2.17
2023-09-03T01:09:59.747Z,3.70
2023-09-03T01:12:39.364Z,2.60
2023-09-03T01:15:14.345Z,2.38
2023-09-03T01:17:53.348Z,3.00
2023-09-03T01:20:29.879Z,2.20
2023-09-03T01:23:33.811Z,2.45
2023-09-03T01:26:32.346Z,2.53
2023-09-03T01:29:02.095Z,3.22
2023-09-03T01:31:31.484Z,2.45
2023-09-03T01:34:04.484Z,3.20
2023-09-03T01:36:34.154Z,2.25
2023-09-03T01:39:05.586Z,2.47
2023-09-03T01:41:34.816Z,3.00
2023-09-03T01:44:03.720Z,2.15
2023-09-03T01:46:42.904Z,2.33
2023-09-03T01:49:27.324Z,3.67
2023-09-03T01:52:11.200Z,3.50
2023-09-03T01:54:41.987Z,2.90
2023-09-03T01:57:17.458Z,2.67
2023-09-03T01:59:52.781Z,3.13
2023-09-03T02:02:21.850Z,3.08
2023-09-03T02:04:49.548Z,2.75
2023-09-03T02:07:16.772Z,3.58
2023-09-03T02:09:44.240Z,2.78
2023-09-03T02:12:11.625Z,3.33
2023-09-03T02:14:38.805Z,3.25
2023-09-03T02:17:07.247Z,3.63
2023-09-03T02:19:34.383Z,3.28
2023-09-03T02:22:01.943Z,4.45
2023-09-03T02:24:29.132Z,3.30
2023-09-03T02:26:56.318Z,3.50
2023-09-03T02:29:23.465Z,3.30
2023-09-03T02:31:50.568Z,2.90
2023-09-03T02:34:19.322Z,4.25
2023-09-03T02:36:46.491Z,3.60
2023-09-03T02:39:14.543Z,3.40
2023-09-03T02:41:42.158Z,6.13
2023-09-03T02:44:10.613Z,3.45
2023-09-03T02:46:37.813Z,3.20
2023-09-03T02:49:05.180Z,2.80
2023-09-03T02:51:34.781Z,3.78
2023-09-03T02:54:02.117Z,3.92
2023-09-03T02:56:31.010Z,5.85
2023-09-03T02:58:58.215Z,3.92
2023-09-03T03:01:25.507Z,3.10
2023-09-03T03:03:52.844Z,4.28
2023-09-03T03:06:20.454Z,4.32
2023-09-03T03:08:48.974Z,3.65
2023-09-03T03:11:18.702Z,3.90
2023-09-03T03:13:53.360Z,3.53
2023-09-03T03:16:24.567Z,4.00
2023-09-03T03:18:53.301Z,3.85
2023-09-03T03:21:24.267Z,3.85
2023-09-03T03:23:58.385Z,4.05
2023-09-03T03:26:32.565Z,4.22
2023-09-03T03:29:00.185Z,3.80
2023-09-03T03:31:29.478Z,4.25
2023-09-03T03:33:58.883Z,4.63
2023-09-03T03:36:29.653Z,3.90
2023-09-03T03:38:58.147Z,5.25
2023-09-03T03:41:25.293Z,4.43
2023-09-03T03:43:55.085Z,5.30
2023-09-03T03:46:25.149Z,3.63
2023-09-03T03:48:55.551Z,4.50
2023-09-03T03:51:22.773Z,4.43
2023-09-03T03:53:52.962Z,4.10
2023-09-03T03:56:22.234Z,4.10
2023-09-03T03:58:49.548Z,4.32
2023-09-03T04:01:19.234Z,5.30
2023-09-03T04:03:50.149Z,4.47
2023-09-03T04:06:18.237Z,3.90
2023-09-03T04:08:46.534Z,5.47
2023-09-03T04:11:17.933Z,4.97
2023-09-03T04:13:46.655Z,4.90
2023-09-03T04:16:16.315Z,4.20
2023-09-03T04:18:46.282Z,4.10
2023-09-03T04:21:13.957Z,4.40
2023-09-03T04:23:41.162Z,4.93
2023-09-03T04:26:10.402Z,4.13
2023-09-03T04:28:42.215Z,4.28
2023-09-03T04:31:11.609Z,5.43
2023-09-03T04:33:41.138Z,4.55
2023-09-03T04:36:11.220Z,4.55
2023-09-03T04:38:39.313Z,4.80
2023-09-03T04:41:07.095Z,4.03
2023-09-03T04:43:49.596Z,4.55
2023-09-03T04:46:24.137Z,3.85
2023-09-03T04:48:51.335Z,4.82
2023-09-03T05:10:58.814Z,4.40
2023-09-03T05:13:26.696Z,4.10
2023-09-03T05:15:54.006Z,4.03
2023-09-03T05:18:21.646Z,4.88
2023-09-03T05:20:48.953Z,5.38
2023-09-03T05:23:16.127Z,4.07
2023-09-03T05:25:43.284Z,3.80
2023-09-03T05:28:11.890Z,4.47
2023-09-03T05:30:39.167Z,4.18
2023-09-03T05:33:07.868Z,4.00
2023-09-03T05:35:35.410Z,4.13
2023-09-03T05:38:02.670Z,3.47
2023-09-03T05:40:29.957Z,3.95
2023-09-03T05:42:57.174Z,4.95
2023-09-03T05:45:25.979Z,4.07
2023-09-03T05:47:53.425Z,5.03
2023-09-03T05:50:20.816Z,5.45
2023-09-03T05:52:47.976Z,4.82
2023-09-03T05:55:15.247Z,4.65
2023-09-03T05:57:42.458Z,5.30
2023-09-03T06:00:11.184Z,5.90
2023-09-03T06:02:50.800Z,6.90
2023-09-03T06:05:19.878Z,7.45
2023-09-03T06:07:47.483Z,7.18
2023-09-03T06:10:15.087Z,7.38
2023-09-03T06:12:42.234Z,8.13
2023-09-03T06:15:10.109Z,10.60
2023-09-03T06:17:37.458Z,9.85
2023-09-03T06:20:07.967Z,9.95
2023-09-03T06:22:35.190Z,8.05
2023-09-03T06:25:02.336Z,9.02
2023-09-03T06:27:31.053Z,7.85
2023-09-03T06:29:58.137Z,10.20
2023-09-03T06:32:25.617Z,13.73
2023-09-03T06:34:53.285Z,12.88
2023-09-03T06:37:22.188Z,16.00
2023-09-03T06:39:49.346Z,15.32
2023-09-03T06:42:16.595Z,16.38
2023-09-03T06:44:43.877Z,16.90
2023-09-03T06:47:10.987Z,17.20
2023-09-03T06:49:38.401Z,15.57
2023-09-03T06:52:06.349Z,13.95
2023-09-03T06:54:34.795Z,12.88
2023-09-03T06:57:01.931Z,14.35
2023-09-03T06:59:34.476Z,16.50
2023-09-03T07:02:02.506Z,15.70
2023-09-03T07:04:29.636Z,16.23
2023-09-03T07:06:57.781Z,18.85
2023-09-03T07:09:30.091Z,19.42
2023-09-03T07:11:58.593Z,21.23
2023-09-03T07:14:25.672Z,23.60
2023-09-03T07:16:53.339Z,23.15
2023-09-03T07:19:21.756Z,55.47
2023-09-03T07:21:49.021Z,26.92
2023-09-03T07:24:16.516Z,48.05
2023-09-03T07:26:43.705Z,135.55
2023-09-03T07:29:14.003Z,67.65
2023-09-03T07:36:36.546Z,76.40
2023-09-03T07:39:09.272Z,67.55
2023-09-03T07:41:37.615Z,61.65
2023-09-03T07:44:06.176Z,44.28
2023-09-03T07:46:35.023Z,42.90
2023-09-03T07:49:02.295Z,41.30
2023-09-03T07:51:29.595Z,42.25
2023-09-03T07:53:56.813Z,43.83
2023-09-03T07:56:24.685Z,42.30
2023-09-03T07:58:51.815Z,39.50
2023-09-03T08:01:20.652Z,39.80
2023-09-03T08:03:49.200Z,43.63
2023-09-03T08:06:16.686Z,38.28
2023-09-03T08:08:44.682Z,32.40
2023-09-03T08:11:11.902Z,36.35
2023-09-03T08:13:39.014Z,32.85
2023-09-03T08:16:06.237Z,30.77
2023-09-03T08:18:33.401Z,30.20
2023-09-03T08:21:01.962Z,28.02
2023-09-03T08:23:29.936Z,29.08
2023-09-03T08:25:57.083Z,27.52
2023-09-03T08:28:24.309Z,29.75
2023-09-03T08:30:51.548Z,31.50
2023-09-03T08:33:18.871Z,32.25
2023-09-03T08:35:46.272Z,29.70
2023-09-03T08:38:15.160Z,30.55
2023-09-03T08:40:44.769Z,31.73
2023-09-03T08:43:16.047Z,30.08
2023-09-03T08:45:51.280Z,32.40
2023-09-03T08:48:18.830Z,28.27
2023-09-03T08:50:46.718Z,30.52
2023-09-03T08:53:16.261Z,31.45
2023-09-03T08:55:44.457Z,32.20
2023-09-03T08:58:11.646Z,29.83
2023-09-03T09:00:41.018Z,29.40
2023-09-03T09:03:13.013Z,28.85
2023-09-03T09:05:42.944Z,25.67
2023-09-03T09:08:10.626Z,26.55
2023-09-03T09:10:44.978Z,30.48
2023-09-03T09:13:14.357Z,24.27
2023-09-03T09:15:43.707Z,24.92
2023-09-03T09:18:12.441Z,25.73
2023-09-03T09:20:41.623Z,24.45
2023-09-03T09:23:09.931Z,20.48
2023-09-03T09:25:38.861Z,21.77
2023-09-03T09:28:14.195Z,22.52
2023-09-03T09:30:54.729Z,19.05
2023-09-03T09:33:22.690Z,19.45
2023-09-03T09:35:50.541Z,20.17
2023-09-03T09:38:19.171Z,23.83
2023-09-03T09:40:47.741Z,23.00
2023-09-03T09:43:15.212Z,26.38
2023-09-03T09:45:53.035Z,21.75
2023-09-03T09:48:20.439Z,23.25
2023-09-03T09:50:49.514Z,21.80
2023-09-03T09:53:25.606Z,21.40
2023-09-03T09:58:38.859Z,20.13
2023-09-03T10:01:06.783Z,17.73
2023-09-03T10:03:43.364Z,18.70
2023-09-03T10:06:13.184Z,19.45
2023-09-03T10:08:42.155Z,20.00
2023-09-03T10:11:10.854Z,17.38
2023-09-03T10:13:42.568Z,18.30
2023-09-03T10:16:12.089Z,20.55
2023-09-03T10:18:44.994Z,18.02
2023-09-03T10:21:14.934Z,14.85
2023-09-03T10:23:51.323Z,15.63
2023-09-03T10:26:26.789Z,15.73
2023-09-03T10:29:02.413Z,17.88
2023-09-03T10:31:31.870Z,14.23
2023-09-03T10:33:59.742Z,15.23
2023-09-03T10:36:26.954Z,13.85
2023-09-03T10:38:54.278Z,14.45
2023-09-03T10:41:26.077Z,16.63
2023-09-03T10:43:54.946Z,13.35
2023-09-03T10:46:23.537Z,15.35
2023-09-03T10:48:53.300Z,12.95
2023-09-03T10:51:35.813Z,13.90
2023-09-03T10:54:17.747Z,14.15
2023-09-03T10:57:18.099Z,13.88
2023-09-03T11:00:12.065Z,15.77
2023-09-03T11:05:22.487Z,13.07
2023-09-03T11:08:11.142Z,12.90
2023-09-03T11:10:44.762Z,15.07
2023-09-03T11:13:26.479Z,14.90
2023-09-03T11:16:01.776Z,11.60
2023-09-03T11:18:29.994Z,12.27
2023-09-03T11:20:58.378Z,12.40
2023-09-03T11:23:29.290Z,10.93
2023-09-03T11:26:00.423Z,10.27
2023-09-03T11:28:37.451Z,10.13
2023-09-03T11:31:05.250Z,12.25
2023-09-03T11:33:32.813Z,11.35
2023-09-03T11:36:02.859Z,11.95
2023-09-03T11:41:00.196Z,10.65
2023-09-03T11:43:31.629Z,10.63
2023-09-03T11:46:05.423Z,10.85
2023-09-03T11:48:33.747Z,11.80
2023-09-03T11:51:00.997Z,11.23
2023-09-03T11:53:41.122Z,10.55
2023-09-03T11:56:13.480Z,10.02
2023-09-03T11:58:45.216Z,12.20
2023-09-03T12:01:17.670Z,9.57
2023-09-03T12:03:45.631Z,9.57
2023-09-03T12:06:12.990Z,9.75
2023-09-03T12:08:40.262Z,8.95
2023-09-03T12:11:07.545Z,9.98
2023-09-03T12:13:36.771Z,8.93
2023-09-03T12:16:07.749Z,9.00
2023-09-03T12:18:36.231Z,10.07
2023-09-03T12:21:04.313Z,9.45
2023-09-03T12:23:31.589Z,9.90
2023-09-03T12:25:58.874Z,10.40
2023-09-03T12:28:38.430Z,10.95
2023-09-03T12:31:07.882Z,12.80
2023-09-03T12:33:49.446Z,9.85
2023-09-03T12:36:18.764Z,9.85
2023-09-03T12:38:58.308Z,9.88
2023-09-03T12:41:29.130Z,9.30
2023-09-03T12:43:57.142Z,8.23
2023-09-03T12:46:25.747Z,8.10
2023-09-03T12:48:54.621Z,8.40
2023-09-03T12:51:23.150Z,9.45
2023-09-03T12:53:50.417Z,9.85
2023-09-03T12:56:17.723Z,8.82
2023-09-03T12:58:47.567Z,9.00
2023-09-03T13:01:15.608Z,8.80
2023-09-03T13:03:45.146Z,9.85
2023-09-03T13:06:12.823Z,9.18
2023-09-03T13:08:39.978Z,8.82
2023-09-03T13:11:07.179Z,9.75
2023-09-03T13:13:34.404Z,8.88
2023-09-03T13:16:02.201Z,8.23
2023-09-03T13:18:29.484Z,8.65
2023-09-03T13:20:58.321Z,8.27
2023-09-03T13:23:25.630Z,8.57
2023-09-03T13:25:52.836Z,9.18
2023-09-03T13:28:20.035Z,8.82
2023-09-03T13:30:57.709Z,8.65
2023-09-03T13:33:29.113Z,9.30
2023-09-03T13:35:58.842Z,8.68
2023-09-03T13:38:26.242Z,9.27
2023-09-03T13:40:57.425Z,9.27
2023-09-03T13:43:25.232Z,9.15
2023-09-03T13:45:53.551Z,8.18
2023-09-03T13:48:20.740Z,7.90
2023-09-03T13:50:48.367Z,7.03
2023-09-03T13:53:16.825Z,7.45
2023-09-03T13:55:44.731Z,8.07
2023-09-03T13:58:11.841Z,7.97
2023-09-03T14:00:39.867Z,7.78
2023-09-03T14:03:07.382Z,7.05
2023-09-03T14:05:34.787Z,5.95
2023-09-03T14:08:02.185Z,7.30
2023-09-03T14:10:30.649Z,7.28
2023-09-03T14:12:57.760Z,9.25
2023-09-03T14:15:24.944Z,7.20
2023-09-03T14:17:52.126Z,6.63
2023-09-03T14:20:19.456Z,5.72
2023-09-03T14:22:46.584Z,6.05
2023-09-03T14:25:13.913Z,7.47
2023-09-03T14:27:42.358Z,6.25
2023-09-03T14:30:11.259Z,5.28
2023-09-03T14:32:38.475Z,5.10
2023-09-03T14:35:06.160Z,5.85
2023-09-03T14:37:33.298Z,5.82
2023-09-03T14:40:00.534Z,7.03
2023-09-03T14:42:27.758Z,6.53
2023-09-03T14:44:56.245Z,5.65
2023-09-03T14:47:23.453Z,6.45
2023-09-03T14:49:50.665Z,6.00
2023-09-03T14:52:20.244Z,6.13
2023-09-03T14:54:47.635Z,5.68
2023-09-03T14:57:14.747Z,5.05
2023-09-03T14:59:41.875Z,6.03
2023-09-03T15:02:10.445Z,6.15
2023-09-03T15:04:37.872Z,6.75
2023-09-03T15:07:05.031Z,11.32
2023-09-03T15:09:32.203Z,6.78
2023-09-03T15:11:59.331Z,5.50
2023-09-03T15:14:26.569Z,4.82
2023-09-03T15:16:53.964Z,6.35
2023-09-03T15:19:23.913Z,4.32
2023-09-03T15:21:51.200Z,5.10
2023-09-03T15:24:18.441Z,7.15
2023-09-03T15:26:47.081Z,5.72
2023-09-03T15:29:14.423Z,5.43
2023-09-03T15:31:41.789Z,6.38
2023-09-03T15:34:10.401Z,6.43
2023-09-03T15:36:39.440Z,5.63
2023-09-03T15:39:06.630Z,6.03
2023-09-03T15:41:33.741Z,5.00
2023-09-03T15:44:04.440Z,5.25
2023-09-03T15:46:31.904Z,5.97
2023-09-03T15:48:59.229Z,6.75
2023-09-03T15:51:26.426Z,6.93
2023-09-03T15:53:56.272Z,6.03
2023-09-03T15:56:23.581Z,6.10
2023-09-03T15:58:52.432Z,5.72
2023-09-03T16:01:20.421Z,5.45
2023-09-03T16:03:47.903Z,5.82
2023-09-03T16:06:15.302Z,5.00
2023-09-03T16:08:42.433Z,6.85
2023-09-03T16:11:11.343Z,6.45
2023-09-03T16:13:38.596Z,5.88
2023-09-03T16:16:08.339Z,6.20
2023-09-03T16:18:35.872Z,6.47
2023-09-03T16:21:03.104Z,6.20
2023-09-03T16:23:30.272Z,6.28
2023-09-03T16:25:57.395Z,5.95
2023-09-03T16:28:26.230Z,6.82
2023-09-03T16:30:58.372Z,7.60
2023-09-03T16:33:25.965Z,6.97
2023-09-03T16:35:58.443Z,9.45
2023-09-03T16:38:25.591Z,11.70
2023-09-03T16:40:55.870Z,8.02
2023-09-03T16:45:52.324Z,7.65
2023-09-03T16:48:19.816Z,6.50
2023-09-03T16:50:47.223Z,7.10
2023-09-03T16:53:14.432Z,7.47
2023-09-03T16:55:41.696Z,6.45
2023-09-03T16:58:08.898Z,7.28
2023-09-03T17:00:36.389Z,7.00
2023-09-03T17:03:05.913Z,7.50
2023-09-03T17:05:33.263Z,6.75
2023-09-03T17:08:00.469Z,7.32
2023-09-03T17:10:27.743Z,6.72
2023-09-03T17:12:55.232Z,7.50
2023-09-03T17:15:22.549Z,7.90
2023-09-03T17:17:49.842Z,6.65
2023-09-03T17:20:18.490Z,7.57
2023-09-03T17:22:45.753Z,8.10
2023-09-03T17:25:12.896Z,7.40
2023-09-03T17:27:40.215Z,7.72
2023-09-03T17:30:08.969Z,6.60
2023-09-03T17:32:36.179Z,7.15
2023-09-03T17:35:03.504Z,7.68
2023-09-03T17:37:32.154Z,8.00
2023-09-03T17:39:59.727Z,7.88
2023-09-03T17:42:27.027Z,7.57
2023-09-03T17:44:54.259Z,6.85
2023-09-03T17:47:21.655Z,7.07
2023-09-03T17:49:48.787Z,8.00
2023-09-03T17:52:16.016Z,6.75
2023-09-03T17:54:44.804Z,7.68
2023-09-03T17:57:12.525Z,6.80
2023-09-03T17:59:40.073Z,7.45
2023-09-03T18:02:08.508Z,6.65
2023-09-03T18:04:36.154Z,8.65
2023-09-03T18:07:03.569Z,8.05
2023-09-03T18:09:31.116Z,10.18
2023-09-03T18:11:59.726Z,7.43
2023-09-03T18:14:26.868Z,8.63
2023-09-03T18:16:54.107Z,7.07
2023-09-03T18:19:21.286Z,8.00
2023-09-03T18:21:48.415Z,8.07
2023-09-03T18:24:15.483Z,8.65
2023-09-03T18:26:42.650Z,9.30
2023-09-03T18:29:11.202Z,8.43
2023-09-03T18:31:38.801Z,8.02
2023-09-03T18:34:06.117Z,6.03
2023-09-03T18:36:33.347Z,6.93
2023-09-03T18:39:00.445Z,6.93
2023-09-03T18:41:27.788Z,6.82
2023-09-03T18:43:55.753Z,6.57
2023-09-03T18:46:24.548Z,8.05
2023-09-03T18:48:51.910Z,6.15
2023-09-03T18:51:19.210Z,7.15
2023-09-03T18:53:46.286Z,5.57
2023-09-03T18:56:13.713Z,7.05
2023-09-03T18:58:41.157Z,6.50
2023-09-03T19:01:09.528Z,6.10
2023-09-03T19:03:39.048Z,6.97
2023-09-03T19:06:08.668Z,6.30
2023-09-03T19:11:04.178Z,6.72
2023-09-03T19:13:31.698Z,5.93
2023-09-03T19:15:59.111Z,6.53
2023-09-03T19:18:27.783Z,6.43
2023-09-03T19:20:57.306Z,6.80
2023-09-03T19:23:25.856Z,7.95
2023-09-03T19:25:53.973Z,8.98
2023-09-03T19:28:22.400Z,7.22
2023-09-03T19:30:51.652Z,6.25
2023-09-03T19:33:20.800Z,7.10
2023-09-03T19:35:57.338Z,6.47
2023-09-03T19:40:55.098Z,6.53
2023-09-03T19:43:25.274Z,5.63
2023-09-03T19:45:54.023Z,7.50
2023-09-03T19:48:23.351Z,5.90
2023-09-03T19:50:52.137Z,6.70
2023-09-03T19:53:19.484Z,6.10
2023-09-03T19:55:48.244Z,6.47
2023-09-03T19:58:17.697Z,5.50
2023-09-03T20:00:47.470Z,5.57
2023-09-03T20:03:16.034Z,4.97
2023-09-03T20:05:43.345Z,7.25
2023-09-03T20:08:11.794Z,5.65
2023-09-03T20:10:39.596Z,6.88
2023-09-03T20:13:08.887Z,5.88
2023-09-03T20:15:39.066Z,5.63
2023-09-03T20:18:07.452Z,6.43
2023-09-03T20:20:36.572Z,5.93
2023-09-03T20:23:04.684Z,4.43
2023-09-03T20:25:31.896Z,6.85
2023-09-03T20:27:59.156Z,4.90
2023-09-03T20:30:27.729Z,4.25
2023-09-03T20:32:54.829Z,6.00
2023-09-03T20:35:21.954Z,4.85
2023-09-03T20:37:49.201Z,5.30
2023-09-03T20:40:16.937Z,5.28
2023-09-03T20:42:44.245Z,5.75
2023-09-03T20:45:11.787Z,5.60
2023-09-03T20:47:41.887Z,5.40
2023-09-03T20:50:09.856Z,6.18
2023-09-03T20:52:37.181Z,4.57
2023-09-03T20:55:08.478Z,5.43
2023-09-03T20:57:35.688Z,5.75
2023-09-03T21:00:05.132Z,5.70
2023-09-03T21:02:32.983Z,6.13
2023-09-03T21:05:01.442Z,5.43
2023-09-03T21:07:28.640Z,6.15
2023-09-03T21:09:55.741Z,6.93
2023-09-03T21:12:25.548Z,6.00
2023-09-03T21:14:52.986Z,6.88
2023-09-03T21:17:20.160Z,8.07
2023-09-03T21:19:47.298Z,7.25
2023-09-03T21:22:15.751Z,5.55
2023-09-03T21:24:42.842Z,6.00
2023-09-03T21:27:10.133Z,5.28
2023-09-03T21:29:37.289Z,5.88
2023-09-03T21:32:05.370Z,6.55
2023-09-03T21:34:32.515Z,7.20
2023-09-03T21:36:59.656Z,5.57
2023-09-03T21:39:28.334Z,6.65
2023-09-03T21:41:55.433Z,6.15
2023-09-03T21:44:22.745Z,6.28
2023-09-03T21:46:49.865Z,7.32
2023-09-03T21:49:17.086Z,6.10
2023-09-03T21:51:44.248Z,5.53
2023-09-03T21:54:11.406Z,5.65
2023-09-03T21:56:40.016Z,6.35
2023-09-03T21:59:07.162Z,5.28
2023-09-03T22:01:34.449Z,5.55
2023-09-03T22:04:04.040Z,5.90
2023-09-03T22:06:31.795Z,5.13
2023-09-03T22:08:59.860Z,5.07
2023-09-03T22:11:27.538Z,5.57
2023-09-03T22:13:59.924Z,5.25
2023-09-03T22:16:27.068Z,5.60
2023-09-03T22:18:57.776Z,5.60
2023-09-03T22:21:28.897Z,6.70
2023-09-03T22:23:57.070Z,6.90
2023-09-03T22:26:24.347Z,5.10
2023-09-03T22:28:56.578Z,5.57
2023-09-03T22:31:24.309Z,5.50
2023-09-03T22:33:51.476Z,6.22
2023-09-03T22:36:18.621Z,6.40
2023-09-03T22:38:46.017Z,5.47
2023-09-03T22:41:13.148Z,6.85
2023-09-03T22:43:40.423Z,6.35
2023-09-03T22:46:08.996Z,5.80
2023-09-03T22:48:36.695Z,7.13
2023-09-03T22:51:04.121Z,6.80
2023-09-03T22:53:31.262Z,5.40
2023-09-03T22:55:58.470Z,6.32
2023-09-03T22:58:25.894Z,5.43
2023-09-03T23:00:53.196Z,6.90
2023-09-03T23:03:21.732Z,5.53
2023-09-03T23:05:48.881Z,6.20
2023-09-03T23:08:15.966Z,7.30
2023-09-03T23:10:43.229Z,5.85
2023-09-03T23:13:10.335Z,5.65
2023-09-03T23:15:37.471Z,8.38
2023-09-03T23:18:06.447Z,5.57
2023-09-03T23:20:34.973Z,6.07
2023-09-03T23:23:02.297Z,5.93
2023-09-03T23:25:29.424Z,5.82
2023-09-03T23:27:56.559Z,5.30
2023-09-03T23:30:23.882Z,7.05
2023-09-03T23:32:51.211Z,6.22
2023-09-03T23:35:18.588Z,6.78
2023-09-03T23:37:47.318Z,7.45
2023-09-03T23:40:14.945Z,5.85
2023-09-03T23:42:42.200Z,5.43
2023-09-03T23:45:10.684Z,4.35
2023-09-03T23:47:38.098Z,5.07
2023-09-03T23:50:06.600Z,5.32
2023-09-03T23:52:33.755Z,5.15
2023-09-03T23:55:02.159Z,4.57
2023-09-03T23:57:29.352Z,4.57
2023-09-03T23:59:56.583Z,5.43
